sensor_id;sensor_type;location;lat;lon;timestamp;P1;durP1;ratioP1;P2;durP2;ratioP2
18899;SDS011;9582;52.018;6.306;2023-05-08T00:00:35;23.70;;;19.98;;
18899;SDS011;9582;52.018;6.306;2023-05-08T00:03:02;23.38;;;20.40;;
18899;SDS011;9582;52.018;6.306;2023-05-08T00:05:29;22.73;;;20.17;;
18899;SDS011;9582;52.018;6.306;2023-05-08T00:07:56;25.70;;;21.08;;
18899;SDS011;9582;52.018;6.306;2023-05-08T00:10:25;23.80;;;20.38;;
18899;SDS011;9582;52.018;6.306;2023-05-08T00:12:53;22.20;;;19.80;;
18899;SDS011;9582;52.018;6.306;2023-05-08T00:15:19;21.92;;;19.13;;
18899;SDS011;9582;52.018;6.306;2023-05-08T00:17:47;22.40;;;20.05;;
18899;SDS011;9582;52.018;6.306;2023-05-08T00:20:14;25.48;;;19.90;;
18899;SDS011;9582;52.018;6.306;2023-05-08T00:22:40;24.27;;;19.55;;
18899;SDS011;9582;52.018;6.306;2023-05-08T00:25:07;24.75;;;20.25;;
18899;SDS011;9582;52.018;6.306;2023-05-08T00:27:34;25.80;;;20.42;;
18899;SDS011;9582;52.018;6.306;2023-05-08T00:30:01;24.73;;;20.67;;
18899;SDS011;9582;52.018;6.306;2023-05-08T00:32:27;25.65;;;20.45;;
18899;SDS011;9582;52.018;6.306;2023-05-08T00:34:55;22.27;;;18.77;;
18899;SDS011;9582;52.018;6.306;2023-05-08T00:37:22;28.90;;;21.83;;
18899;SDS011;9582;52.018;6.306;2023-05-08T00:39:49;25.42;;;22.23;;
18899;SDS011;9582;52.018;6.306;2023-05-08T00:42:15;28.05;;;21.88;;
18899;SDS011;9582;52.018;6.306;2023-05-08T00:44:42;25.80;;;22.27;;
18899;SDS011;9582;52.018;6.306;2023-05-08T00:47:09;28.35;;;22.23;;
18899;SDS011;9582;52.018;6.306;2023-05-08T00:49:36;28.70;;;21.85;;
18899;SDS011;9582;52.018;6.306;2023-05-08T00:52:05;29.13;;;22.20;;
18899;SDS011;9582;52.018;6.306;2023-05-08T00:54:33;24.98;;;21.02;;
18899;SDS011;9582;52.018;6.306;2023-05-08T00:57:01;26.95;;;21.85;;
18899;SDS011;9582;52.018;6.306;2023-05-08T00:59:29;28.33;;;22.75;;
18899;SDS011;9582;52.018;6.306;2023-05-08T01:01:55;29.83;;;23.88;;
18899;SDS011;9582;52.018;6.306;2023-05-08T01:04:23;30.88;;;24.63;;
18899;SDS011;9582;52.018;6.306;2023-05-08T01:06:50;26.25;;;22.10;;
18899;SDS011;9582;52.018;6.306;2023-05-08T01:09:18;25.77;;;22.95;;
18899;SDS011;9582;52.018;6.306;2023-05-08T01:11:46;27.90;;;22.50;;
18899;SDS011;9582;52.018;6.306;2023-05-08T01:14:18;26.95;;;22.42;;
18899;SDS011;9582;52.018;6.306;2023-05-08T01:16:49;27.48;;;23.77;;
18899;SDS011;9582;52.018;6.306;2023-05-08T01:19:41;25.25;;;22.48;;
18899;SDS011;9582;52.018;6.306;2023-05-08T01:22:25;27.17;;;23.40;;
18899;SDS011;9582;52.018;6.306;2023-05-08T01:25:11;28.50;;;22.98;;
18899;SDS011;9582;52.018;6.306;2023-05-08T01:27:55;29.13;;;24.00;;
18899;SDS011;9582;52.018;6.306;2023-05-08T01:30:45;26.13;;;23.33;;
18899;SDS011;9582;52.018;6.306;2023-05-08T01:33:25;26.33;;;23.40;;
18899;SDS011;9582;52.018;6.306;2023-05-08T01:35:59;24.95;;;22.25;;
18899;SDS011;9582;52.018;6.306;2023-05-08T01:38:38;24.90;;;22.10;;
18899;SDS011;9582;52.018;6.306;2023-05-08T01:41:09;26.60;;;22.15;;
18899;SDS011;9582;52.018;6.306;2023-05-08T01:43:43;27.90;;;21.70;;
18899;SDS011;9582;52.018;6.306;2023-05-08T01:46:17;28.20;;;23.25;;
18899;SDS011;9582;52.018;6.306;2023-05-08T01:48:48;27.60;;;22.75;;
18899;SDS011;9582;52.018;6.306;2023-05-08T01:51:16;24.73;;;21.27;;
18899;SDS011;9582;52.018;6.306;2023-05-08T01:53:47;25.70;;;22.88;;
18899;SDS011;9582;52.018;6.306;2023-05-08T01:56:18;28.30;;;23.05;;
18899;SDS011;9582;52.018;6.306;2023-05-08T01:58:48;26.88;;;23.25;;
18899;SDS011;9582;52.018;6.306;2023-05-08T02:01:17;27.02;;;24.08;;
18899;SDS011;9582;52.018;6.306;2023-05-08T02:03:48;26.52;;;23.05;;
18899;SDS011;9582;52.018;6.306;2023-05-08T02:06:16;28.15;;;24.15;;
18899;SDS011;9582;52.018;6.306;2023-05-08T02:08:47;28.75;;;24.33;;
18899;SDS011;9582;52.018;6.306;2023-05-08T02:11:16;26.00;;;23.15;;
18899;SDS011;9582;52.018;6.306;2023-05-08T02:13:44;25.10;;;22.50;;
18899;SDS011;9582;52.018;6.306;2023-05-08T02:16:13;26.10;;;22.98;;
18899;SDS011;9582;52.018;6.306;2023-05-08T02:18:42;24.83;;;22.02;;
18899;SDS011;9582;52.018;6.306;2023-05-08T02:21:13;26.00;;;22.25;;
18899;SDS011;9582;52.018;6.306;2023-05-08T02:23:41;26.98;;;22.85;;
18899;SDS011;9582;52.018;6.306;2023-05-08T02:26:09;24.90;;;22.20;;
18899;SDS011;9582;52.018;6.306;2023-05-08T02:28:38;25.75;;;22.63;;
18899;SDS011;9582;52.018;6.306;2023-05-08T02:31:06;25.20;;;22.42;;
18899;SDS011;9582;52.018;6.306;2023-05-08T02:33:34;26.13;;;22.30;;
18899;SDS011;9582;52.018;6.306;2023-05-08T02:36:03;25.40;;;21.88;;
18899;SDS011;9582;52.018;6.306;2023-05-08T02:38:33;26.05;;;23.23;;
18899;SDS011;9582;52.018;6.306;2023-05-08T02:41:04;27.73;;;24.08;;
18899;SDS011;9582;52.018;6.306;2023-05-08T02:43:31;28.73;;;24.60;;
18899;SDS011;9582;52.018;6.306;2023-05-08T02:46:01;27.77;;;24.88;;
18899;SDS011;9582;52.018;6.306;2023-05-08T02:48:35;31.67;;;24.90;;
18899;SDS011;9582;52.018;6.306;2023-05-08T02:51:09;27.33;;;24.38;;
18899;SDS011;9582;52.018;6.306;2023-05-08T02:53:46;25.50;;;22.90;;
18899;SDS011;9582;52.018;6.306;2023-05-08T02:56:20;26.67;;;23.77;;
18899;SDS011;9582;52.018;6.306;2023-05-08T02:58:58;27.40;;;23.40;;
18899;SDS011;9582;52.018;6.306;2023-05-08T03:01:34;27.05;;;22.85;;
18899;SDS011;9582;52.018;6.306;2023-05-08T03:04:07;28.13;;;24.53;;
18899;SDS011;9582;52.018;6.306;2023-05-08T03:06:37;26.58;;;23.77;;
18899;SDS011;9582;52.018;6.306;2023-05-08T03:09:11;25.23;;;22.45;;
18899;SDS011;9582;52.018;6.306;2023-05-08T03:11:42;26.05;;;23.20;;
18899;SDS011;9582;52.018;6.306;2023-05-08T03:14:13;25.67;;;22.67;;
18899;SDS011;9582;52.018;6.306;2023-05-08T03:16:45;27.95;;;23.33;;
18899;SDS011;9582;52.018;6.306;2023-05-08T03:19:17;25.95;;;23.00;;
18899;SDS011;9582;52.018;6.306;2023-05-08T03:21:47;25.63;;;22.90;;
18899;SDS011;9582;52.018;6.306;2023-05-08T03:24:17;25.10;;;22.42;;
18899;SDS011;9582;52.018;6.306;2023-05-08T03:26:47;26.30;;;22.67;;
18899;SDS011;9582;52.018;6.306;2023-05-08T03:29:14;27.35;;;23.48;;
18899;SDS011;9582;52.018;6.306;2023-05-08T03:31:43;28.60;;;24.53;;
18899;SDS011;9582;52.018;6.306;2023-05-08T03:34:10;29.83;;;25.35;;
18899;SDS011;9582;52.018;6.306;2023-05-08T03:36:38;30.97;;;26.27;;
18899;SDS011;9582;52.018;6.306;2023-05-08T03:39:05;31.17;;;25.20;;
18899;SDS011;9582;52.018;6.306;2023-05-08T03:41:33;31.53;;;26.73;;
18899;SDS011;9582;52.018;6.306;2023-05-08T03:44:00;30.15;;;24.67;;
18899;SDS011;9582;52.018;6.306;2023-05-08T03:46:29;33.25;;;24.80;;
18899;SDS011;9582;52.018;6.306;2023-05-08T03:48:56;28.52;;;24.85;;
18899;SDS011;9582;52.018;6.306;2023-05-08T03:51:25;33.73;;;25.70;;
18899;SDS011;9582;52.018;6.306;2023-05-08T03:53:52;30.50;;;25.37;;
18899;SDS011;9582;52.018;6.306;2023-05-08T03:56:19;31.70;;;26.27;;
18899;SDS011;9582;52.018;6.306;2023-05-08T03:58:47;30.20;;;26.42;;
18899;SDS011;9582;52.018;6.306;2023-05-08T04:01:21;27.45;;;23.95;;
18899;SDS011;9582;52.018;6.306;2023-05-08T04:03:53;29.27;;;25.23;;
18899;SDS011;9582;52.018;6.306;2023-05-08T04:06:27;28.25;;;24.42;;
18899;SDS011;9582;52.018;6.306;2023-05-08T04:09:00;30.23;;;24.87;;
18899;SDS011;9582;52.018;6.306;2023-05-08T04:11:31;27.63;;;24.27;;
18899;SDS011;9582;52.018;6.306;2023-05-08T04:14:06;29.87;;;24.87;;
18899;SDS011;9582;52.018;6.306;2023-05-08T04:16:37;30.23;;;25.57;;
18899;SDS011;9582;52.018;6.306;2023-05-08T04:19:12;29.73;;;25.07;;
18899;SDS011;9582;52.018;6.306;2023-05-08T04:21:43;28.27;;;24.70;;
18899;SDS011;9582;52.018;6.306;2023-05-08T04:24:11;29.02;;;24.83;;
18899;SDS011;9582;52.018;6.306;2023-05-08T04:26:43;28.55;;;25.25;;
18899;SDS011;9582;52.018;6.306;2023-05-08T04:29:12;28.30;;;24.00;;
18899;SDS011;9582;52.018;6.306;2023-05-08T04:31:39;28.60;;;25.20;;
18899;SDS011;9582;52.018;6.306;2023-05-08T04:34:07;27.10;;;24.20;;
18899;SDS011;9582;52.018;6.306;2023-05-08T04:36:34;27.42;;;24.25;;
18899;SDS011;9582;52.018;6.306;2023-05-08T04:39:02;27.80;;;24.63;;
18899;SDS011;9582;52.018;6.306;2023-05-08T04:41:29;27.50;;;24.17;;
18899;SDS011;9582;52.018;6.306;2023-05-08T04:43:56;27.30;;;24.40;;
18899;SDS011;9582;52.018;6.306;2023-05-08T04:46:24;26.55;;;23.75;;
18899;SDS011;9582;52.018;6.306;2023-05-08T04:48:53;27.30;;;24.27;;
18899;SDS011;9582;52.018;6.306;2023-05-08T04:51:19;26.80;;;23.90;;
18899;SDS011;9582;52.018;6.306;2023-05-08T04:53:47;30.40;;;24.83;;
18899;SDS011;9582;52.018;6.306;2023-05-08T04:56:14;28.58;;;23.55;;
18899;SDS011;9582;52.018;6.306;2023-05-08T04:58:40;27.80;;;23.43;;
18899;SDS011;9582;52.018;6.306;2023-05-08T05:01:07;27.02;;;24.15;;
18899;SDS011;9582;52.018;6.306;2023-05-08T05:03:35;28.92;;;24.98;;
18899;SDS011;9582;52.018;6.306;2023-05-08T05:06:02;28.75;;;24.52;;
18899;SDS011;9582;52.018;6.306;2023-05-08T05:08:28;26.05;;;23.25;;
18899;SDS011;9582;52.018;6.306;2023-05-08T05:10:56;26.17;;;23.50;;
18899;SDS011;9582;52.018;6.306;2023-05-08T05:13:22;27.02;;;24.17;;
18899;SDS011;9582;52.018;6.306;2023-05-08T05:15:49;28.55;;;22.60;;
18899;SDS011;9582;52.018;6.306;2023-05-08T05:18:19;25.83;;;22.10;;
18899;SDS011;9582;52.018;6.306;2023-05-08T05:20:48;25.15;;;22.65;;
18899;SDS011;9582;52.018;6.306;2023-05-08T05:23:16;25.52;;;22.88;;
18899;SDS011;9582;52.018;6.306;2023-05-08T05:25:43;25.35;;;22.70;;
18899;SDS011;9582;52.018;6.306;2023-05-08T05:28:09;24.33;;;21.75;;
18899;SDS011;9582;52.018;6.306;2023-05-08T05:30:36;23.15;;;20.75;;
18899;SDS011;9582;52.018;6.306;2023-05-08T05:33:02;25.00;;;22.38;;
18899;SDS011;9582;52.018;6.306;2023-05-08T05:35:29;23.63;;;21.23;;
18899;SDS011;9582;52.018;6.306;2023-05-08T05:37:57;22.65;;;20.10;;
18899;SDS011;9582;52.018;6.306;2023-05-08T05:40:24;24.17;;;21.73;;
18899;SDS011;9582;52.018;6.306;2023-05-08T05:42:51;23.13;;;20.73;;
18899;SDS011;9582;52.018;6.306;2023-05-08T05:45:18;21.48;;;19.23;;
18899;SDS011;9582;52.018;6.306;2023-05-08T05:47:45;22.70;;;20.40;;
18899;SDS011;9582;52.018;6.306;2023-05-08T05:50:14;22.60;;;20.35;;
18899;SDS011;9582;52.018;6.306;2023-05-08T05:52:42;21.77;;;19.67;;
18899;SDS011;9582;52.018;6.306;2023-05-08T05:55:10;20.10;;;18.10;;
18899;SDS011;9582;52.018;6.306;2023-05-08T05:57:37;22.20;;;19.83;;
18899;SDS011;9582;52.018;6.306;2023-05-08T06:00:04;22.05;;;19.95;;
18899;SDS011;9582;52.018;6.306;2023-05-08T06:02:39;21.83;;;19.63;;
18899;SDS011;9582;52.018;6.306;2023-05-08T06:05:07;21.42;;;19.33;;
18899;SDS011;9582;52.018;6.306;2023-05-08T06:07:34;22.10;;;19.85;;
18899;SDS011;9582;52.018;6.306;2023-05-08T06:10:02;22.80;;;19.70;;
18899;SDS011;9582;52.018;6.306;2023-05-08T06:12:30;22.65;;;20.35;;
18899;SDS011;9582;52.018;6.306;2023-05-08T06:14:58;21.20;;;18.63;;
18899;SDS011;9582;52.018;6.306;2023-05-08T06:17:24;21.80;;;19.58;;
18899;SDS011;9582;52.018;6.306;2023-05-08T06:19:52;20.58;;;18.60;;
18899;SDS011;9582;52.018;6.306;2023-05-08T06:22:20;21.08;;;19.08;;
18899;SDS011;9582;52.018;6.306;2023-05-08T06:24:48;21.88;;;19.48;;
18899;SDS011;9582;52.018;6.306;2023-05-08T06:27:17;21.63;;;19.45;;
18899;SDS011;9582;52.018;6.306;2023-05-08T06:29:45;21.25;;;19.05;;
18899;SDS011;9582;52.018;6.306;2023-05-08T06:32:12;22.15;;;19.95;;
18899;SDS011;9582;52.018;6.306;2023-05-08T06:34:38;20.88;;;18.88;;
18899;SDS011;9582;52.018;6.306;2023-05-08T06:37:05;23.30;;;21.00;;
18899;SDS011;9582;52.018;6.306;2023-05-08T06:39:31;21.60;;;19.48;;
18899;SDS011;9582;52.018;6.306;2023-05-08T06:41:58;23.05;;;20.75;;
18899;SDS011;9582;52.018;6.306;2023-05-08T06:44:29;22.00;;;19.90;;
18899;SDS011;9582;52.018;6.306;2023-05-08T06:46:56;22.10;;;19.80;;
18899;SDS011;9582;52.018;6.306;2023-05-08T06:49:23;22.92;;;20.58;;
18899;SDS011;9582;52.018;6.306;2023-05-08T06:51:50;21.10;;;19.00;;
18899;SDS011;9582;52.018;6.306;2023-05-08T06:54:16;20.80;;;18.65;;
18899;SDS011;9582;52.018;6.306;2023-05-08T06:56:43;21.38;;;19.17;;
18899;SDS011;9582;52.018;6.306;2023-05-08T06:59:10;25.10;;;20.25;;
18899;SDS011;9582;52.018;6.306;2023-05-08T07:01:36;23.70;;;21.20;;
18899;SDS011;9582;52.018;6.306;2023-05-08T07:04:04;23.80;;;21.40;;
18899;SDS011;9582;52.018;6.306;2023-05-08T07:06:31;24.48;;;22.00;;
18899;SDS011;9582;52.018;6.306;2023-05-08T07:08:57;23.58;;;21.27;;
18899;SDS011;9582;52.018;6.306;2023-05-08T07:11:24;23.70;;;21.20;;
18899;SDS011;9582;52.018;6.306;2023-05-08T07:13:51;23.73;;;21.33;;
18899;SDS011;9582;52.018;6.306;2023-05-08T07:16:17;23.92;;;21.52;;
18899;SDS011;9582;52.018;6.306;2023-05-08T07:18:44;23.55;;;21.25;;
18899;SDS011;9582;52.018;6.306;2023-05-08T07:21:12;24.58;;;22.05;;
18899;SDS011;9582;52.018;6.306;2023-05-08T07:23:39;23.45;;;20.95;;
18899;SDS011;9582;52.018;6.306;2023-05-08T07:26:06;22.15;;;19.95;;
18899;SDS011;9582;52.018;6.306;2023-05-08T07:28:33;24.50;;;21.90;;
18899;SDS011;9582;52.018;6.306;2023-05-08T07:31:02;23.15;;;20.75;;
18899;SDS011;9582;52.018;6.306;2023-05-08T07:33:29;24.05;;;21.75;;
18899;SDS011;9582;52.018;6.306;2023-05-08T07:35:56;22.40;;;20.17;;
18899;SDS011;9582;52.018;6.306;2023-05-08T07:38:23;22.73;;;20.35;;
18899;SDS011;9582;52.018;6.306;2023-05-08T07:40:50;23.83;;;21.42;;
18899;SDS011;9582;52.018;6.306;2023-05-08T07:43:21;23.90;;;21.42;;
18899;SDS011;9582;52.018;6.306;2023-05-08T07:45:48;21.90;;;19.67;;
18899;SDS011;9582;52.018;6.306;2023-05-08T07:48:15;22.65;;;20.27;;
18899;SDS011;9582;52.018;6.306;2023-05-08T07:50:41;24.38;;;21.77;;
18899;SDS011;9582;52.018;6.306;2023-05-08T07:53:08;23.67;;;21.27;;
18899;SDS011;9582;52.018;6.306;2023-05-08T07:55:36;24.27;;;21.80;;
18899;SDS011;9582;52.018;6.306;2023-05-08T07:58:03;23.52;;;21.20;;
18899;SDS011;9582;52.018;6.306;2023-05-08T08:00:29;22.30;;;20.20;;
18899;SDS011;9582;52.018;6.306;2023-05-08T08:02:56;23.77;;;21.48;;
18899;SDS011;9582;52.018;6.306;2023-05-08T08:05:22;23.60;;;21.10;;
18899;SDS011;9582;52.018;6.306;2023-05-08T08:07:49;25.23;;;22.23;;
18899;SDS011;9582;52.018;6.306;2023-05-08T08:10:16;24.15;;;21.77;;
18899;SDS011;9582;52.018;6.306;2023-05-08T08:12:44;24.25;;;21.65;;
18899;SDS011;9582;52.018;6.306;2023-05-08T08:15:10;24.58;;;22.08;;
18899;SDS011;9582;52.018;6.306;2023-05-08T08:17:37;23.17;;;20.88;;
18899;SDS011;9582;52.018;6.306;2023-05-08T08:20:04;24.70;;;22.15;;
18899;SDS011;9582;52.018;6.306;2023-05-08T08:22:31;25.58;;;22.88;;
18899;SDS011;9582;52.018;6.306;2023-05-08T08:24:57;23.90;;;21.40;;
18899;SDS011;9582;52.018;6.306;2023-05-08T08:27:24;25.98;;;23.25;;
18899;SDS011;9582;52.018;6.306;2023-05-08T08:29:52;27.60;;;24.58;;
18899;SDS011;9582;52.018;6.306;2023-05-08T08:32:19;27.70;;;24.80;;
18899;SDS011;9582;52.018;6.306;2023-05-08T08:34:45;27.25;;;24.52;;
18899;SDS011;9582;52.018;6.306;2023-05-08T08:37:12;28.55;;;24.58;;
18899;SDS011;9582;52.018;6.306;2023-05-08T08:39:38;26.88;;;24.08;;
18899;SDS011;9582;52.018;6.306;2023-05-08T08:42:05;25.70;;;22.98;;
18899;SDS011;9582;52.018;6.306;2023-05-08T08:44:31;26.67;;;23.92;;
18899;SDS011;9582;52.018;6.306;2023-05-08T08:46:59;28.83;;;25.13;;
18899;SDS011;9582;52.018;6.306;2023-05-08T08:49:27;25.05;;;22.33;;
18899;SDS011;9582;52.018;6.306;2023-05-08T08:51:57;26.27;;;23.48;;
18899;SDS011;9582;52.018;6.306;2023-05-08T08:54:27;26.98;;;24.10;;
18899;SDS011;9582;52.018;6.306;2023-05-08T08:56:55;26.83;;;24.13;;
18899;SDS011;9582;52.018;6.306;2023-05-08T08:59:25;28.35;;;23.95;;
18899;SDS011;9582;52.018;6.306;2023-05-08T09:01:54;26.60;;;23.90;;
18899;SDS011;9582;52.018;6.306;2023-05-08T09:04:24;26.27;;;23.55;;
18899;SDS011;9582;52.018;6.306;2023-05-08T09:06:51;26.67;;;23.88;;
18899;SDS011;9582;52.018;6.306;2023-05-08T09:09:19;27.30;;;24.50;;
18899;SDS011;9582;52.018;6.306;2023-05-08T09:11:46;29.33;;;24.27;;
18899;SDS011;9582;52.018;6.306;2023-05-08T09:14:13;27.45;;;24.30;;
18899;SDS011;9582;52.018;6.306;2023-05-08T09:16:40;27.42;;;23.55;;
18899;SDS011;9582;52.018;6.306;2023-05-08T09:19:06;29.83;;;24.42;;
18899;SDS011;9582;52.018;6.306;2023-05-08T09:21:35;26.10;;;22.80;;
18899;SDS011;9582;52.018;6.306;2023-05-08T09:24:02;26.90;;;23.15;;
18899;SDS011;9582;52.018;6.306;2023-05-08T09:26:31;26.90;;;23.00;;
18899;SDS011;9582;52.018;6.306;2023-05-08T09:29:09;25.45;;;22.52;;
18899;SDS011;9582;52.018;6.306;2023-05-08T09:31:38;29.40;;;23.92;;
18899;SDS011;9582;52.018;6.306;2023-05-08T09:34:06;32.30;;;26.73;;
18899;SDS011;9582;52.018;6.306;2023-05-08T09:36:33;31.08;;;26.60;;
18899;SDS011;9582;52.018;6.306;2023-05-08T09:39:01;33.15;;;26.85;;
18899;SDS011;9582;52.018;6.306;2023-05-08T09:41:28;32.45;;;26.55;;
18899;SDS011;9582;52.018;6.306;2023-05-08T09:44:01;31.95;;;26.98;;
18899;SDS011;9582;52.018;6.306;2023-05-08T09:46:29;33.40;;;27.23;;
18899;SDS011;9582;52.018;6.306;2023-05-08T09:48:57;34.10;;;28.45;;
18899;SDS011;9582;52.018;6.306;2023-05-08T09:51:24;32.30;;;28.45;;
18899;SDS011;9582;52.018;6.306;2023-05-08T09:53:54;33.17;;;28.25;;
18899;SDS011;9582;52.018;6.306;2023-05-08T09:56:28;38.42;;;31.90;;
18899;SDS011;9582;52.018;6.306;2023-05-08T09:58:55;34.05;;;30.35;;
18899;SDS011;9582;52.018;6.306;2023-05-08T10:01:28;33.78;;;29.95;;
18899;SDS011;9582;52.018;6.306;2023-05-08T10:03:56;33.72;;;30.33;;
18899;SDS011;9582;52.018;6.306;2023-05-08T10:06:23;35.97;;;32.05;;
18899;SDS011;9582;52.018;6.306;2023-05-08T10:09:09;36.15;;;32.25;;
18899;SDS011;9582;52.018;6.306;2023-05-08T10:11:37;36.38;;;32.42;;
18899;SDS011;9582;52.018;6.306;2023-05-08T10:14:05;35.88;;;32.15;;
18899;SDS011;9582;52.018;6.306;2023-05-08T10:16:35;37.17;;;32.90;;
18899;SDS011;9582;52.018;6.306;2023-05-08T10:19:11;38.58;;;33.30;;
18899;SDS011;9582;52.018;6.306;2023-05-08T10:21:40;37.88;;;31.48;;
18899;SDS011;9582;52.018;6.306;2023-05-08T10:24:12;36.05;;;32.25;;
18899;SDS011;9582;52.018;6.306;2023-05-08T10:26:41;36.03;;;32.20;;
18899;SDS011;9582;52.018;6.306;2023-05-08T10:29:16;36.42;;;32.60;;
18899;SDS011;9582;52.018;6.306;2023-05-08T10:31:44;37.65;;;32.47;;
18899;SDS011;9582;52.018;6.306;2023-05-08T10:34:15;39.58;;;34.72;;
18899;SDS011;9582;52.018;6.306;2023-05-08T10:36:45;37.17;;;32.95;;
18899;SDS011;9582;52.018;6.306;2023-05-08T10:39:14;37.53;;;33.60;;
18899;SDS011;9582;52.018;6.306;2023-05-08T10:41:41;38.03;;;33.95;;
18899;SDS011;9582;52.018;6.306;2023-05-08T10:44:08;40.58;;;36.28;;
18899;SDS011;9582;52.018;6.306;2023-05-08T10:46:36;37.70;;;33.97;;
18899;SDS011;9582;52.018;6.306;2023-05-08T10:49:11;39.00;;;34.92;;
18899;SDS011;9582;52.018;6.306;2023-05-08T10:51:46;40.10;;;36.00;;
18899;SDS011;9582;52.018;6.306;2023-05-08T10:54:25;36.13;;;32.53;;
18899;SDS011;9582;52.018;6.306;2023-05-08T10:57:06;38.60;;;34.60;;
18899;SDS011;9582;52.018;6.306;2023-05-08T10:59:33;38.10;;;34.10;;
18899;SDS011;9582;52.018;6.306;2023-05-08T11:02:02;42.58;;;34.92;;
18899;SDS011;9582;52.018;6.306;2023-05-08T11:04:30;37.10;;;33.10;;
18899;SDS011;9582;52.018;6.306;2023-05-08T11:06:56;38.70;;;34.63;;
18899;SDS011;9582;52.018;6.306;2023-05-08T11:09:27;36.97;;;32.97;;
18899;SDS011;9582;52.018;6.306;2023-05-08T11:12:00;35.95;;;32.30;;
18899;SDS011;9582;52.018;6.306;2023-05-08T11:14:32;35.30;;;31.63;;
18899;SDS011;9582;52.018;6.306;2023-05-08T11:17:06;34.95;;;30.02;;
18899;SDS011;9582;52.018;6.306;2023-05-08T11:19:34;35.63;;;31.98;;
18899;SDS011;9582;52.018;6.306;2023-05-08T11:22:15;36.28;;;32.60;;
18899;SDS011;9582;52.018;6.306;2023-05-08T11:24:49;36.47;;;32.40;;
18899;SDS011;9582;52.018;6.306;2023-05-08T11:27:29;37.75;;;33.65;;
18899;SDS011;9582;52.018;6.306;2023-05-08T11:30:21;35.88;;;31.98;;
18899;SDS011;9582;52.018;6.306;2023-05-08T11:32:58;38.17;;;33.70;;
18899;SDS011;9582;52.018;6.306;2023-05-08T11:35:46;40.08;;;35.70;;
18899;SDS011;9582;52.018;6.306;2023-05-08T11:38:14;41.88;;;36.35;;
18899;SDS011;9582;52.018;6.306;2023-05-08T11:40:48;41.70;;;35.85;;
18899;SDS011;9582;52.018;6.306;2023-05-08T11:43:23;41.25;;;35.65;;
18899;SDS011;9582;52.018;6.306;2023-05-08T11:45:51;45.25;;;37.08;;
18899;SDS011;9582;52.018;6.306;2023-05-08T11:48:18;46.03;;;37.72;;
18899;SDS011;9582;52.018;6.306;2023-05-08T11:50:45;42.75;;;37.70;;
18899;SDS011;9582;52.018;6.306;2023-05-08T11:53:12;43.30;;;38.30;;
18899;SDS011;9582;52.018;6.306;2023-05-08T11:55:38;44.13;;;38.28;;
18899;SDS011;9582;52.018;6.306;2023-05-08T11:58:11;46.08;;;38.90;;
18899;SDS011;9582;52.018;6.306;2023-05-08T12:00:39;46.65;;;39.85;;
18899;SDS011;9582;52.018;6.306;2023-05-08T12:03:10;48.28;;;40.33;;
18899;SDS011;9582;52.018;6.306;2023-05-08T12:05:37;47.47;;;39.58;;
18899;SDS011;9582;52.018;6.306;2023-05-08T12:08:04;52.75;;;42.00;;
18899;SDS011;9582;52.018;6.306;2023-05-08T12:10:31;46.53;;;40.15;;
18899;SDS011;9582;52.018;6.306;2023-05-08T12:12:57;44.17;;;38.60;;
18899;SDS011;9582;52.018;6.306;2023-05-08T12:15:25;46.15;;;40.28;;
18899;SDS011;9582;52.018;6.306;2023-05-08T12:17:59;44.75;;;39.80;;
18899;SDS011;9582;52.018;6.306;2023-05-08T12:20:26;43.30;;;38.60;;
18899;SDS011;9582;52.018;6.306;2023-05-08T12:22:53;45.80;;;40.65;;
18899;SDS011;9582;52.018;6.306;2023-05-08T12:25:19;46.08;;;39.60;;
18899;SDS011;9582;52.018;6.306;2023-05-08T12:27:46;43.55;;;38.25;;
18899;SDS011;9582;52.018;6.306;2023-05-08T12:30:13;46.35;;;41.00;;
18899;SDS011;9582;52.018;6.306;2023-05-08T12:32:42;47.42;;;42.20;;
18899;SDS011;9582;52.018;6.306;2023-05-08T12:35:09;47.40;;;42.22;;
18899;SDS011;9582;52.018;6.306;2023-05-08T12:37:36;45.45;;;40.10;;
18899;SDS011;9582;52.018;6.306;2023-05-08T12:40:03;41.05;;;36.25;;
18899;SDS011;9582;52.018;6.306;2023-05-08T12:42:40;44.67;;;38.88;;
18899;SDS011;9582;52.018;6.306;2023-05-08T12:45:07;42.60;;;36.40;;
18899;SDS011;9582;52.018;6.306;2023-05-08T12:47:45;45.70;;;38.90;;
18899;SDS011;9582;52.018;6.306;2023-05-08T12:50:13;43.70;;;38.33;;
18899;SDS011;9582;52.018;6.306;2023-05-08T12:52:40;46.47;;;39.30;;
18899;SDS011;9582;52.018;6.306;2023-05-08T12:55:18;43.25;;;38.22;;
18899;SDS011;9582;52.018;6.306;2023-05-08T12:57:45;47.83;;;39.53;;
18899;SDS011;9582;52.018;6.306;2023-05-08T13:00:14;43.50;;;38.58;;
18899;SDS011;9582;52.018;6.306;2023-05-08T13:02:51;43.20;;;36.95;;
18899;SDS011;9582;52.018;6.306;2023-05-08T13:05:19;42.72;;;37.38;;
18899;SDS011;9582;52.018;6.306;2023-05-08T13:07:46;45.05;;;37.00;;
18899;SDS011;9582;52.018;6.306;2023-05-08T13:10:12;44.47;;;37.38;;
18899;SDS011;9582;52.018;6.306;2023-05-08T13:12:39;42.72;;;35.35;;
18899;SDS011;9582;52.018;6.306;2023-05-08T13:15:06;43.10;;;36.05;;
18899;SDS011;9582;52.018;6.306;2023-05-08T13:17:33;40.78;;;35.65;;
18899;SDS011;9582;52.018;6.306;2023-05-08T13:20:01;40.83;;;35.85;;
18899;SDS011;9582;52.018;6.306;2023-05-08T13:22:28;41.78;;;37.28;;
18899;SDS011;9582;52.018;6.306;2023-05-08T13:24:55;41.83;;;36.45;;
18899;SDS011;9582;52.018;6.306;2023-05-08T13:27:22;42.53;;;37.90;;
18899;SDS011;9582;52.018;6.306;2023-05-08T13:29:49;43.33;;;37.35;;
18899;SDS011;9582;52.018;6.306;2023-05-08T13:32:15;44.70;;;38.65;;
18899;SDS011;9582;52.018;6.306;2023-05-08T13:34:42;42.28;;;37.75;;
18899;SDS011;9582;52.018;6.306;2023-05-08T13:37:10;44.80;;;38.70;;
18899;SDS011;9582;52.018;6.306;2023-05-08T13:39:36;43.35;;;38.65;;
18899;SDS011;9582;52.018;6.306;2023-05-08T13:42:03;41.78;;;37.22;;
18899;SDS011;9582;52.018;6.306;2023-05-08T13:44:29;44.85;;;40.15;;
18899;SDS011;9582;52.018;6.306;2023-05-08T13:46:56;45.05;;;40.22;;
18899;SDS011;9582;52.018;6.306;2023-05-08T13:49:23;50.60;;;44.75;;
18899;SDS011;9582;52.018;6.306;2023-05-08T13:51:51;39.60;;;34.70;;
18899;SDS011;9582;52.018;6.306;2023-05-08T13:54:19;38.70;;;33.50;;
18899;SDS011;9582;52.018;6.306;2023-05-08T13:56:45;36.22;;;31.10;;
18899;SDS011;9582;52.018;6.306;2023-05-08T13:59:13;29.27;;;25.75;;
18899;SDS011;9582;52.018;6.306;2023-05-08T14:01:40;26.50;;;23.52;;
18899;SDS011;9582;52.018;6.306;2023-05-08T14:04:07;20.27;;;17.52;;
18899;SDS011;9582;52.018;6.306;2023-05-08T14:06:33;17.42;;;15.63;;
18899;SDS011;9582;52.018;6.306;2023-05-08T14:09:00;19.10;;;17.10;;
18899;SDS011;9582;52.018;6.306;2023-05-08T14:11:28;21.77;;;19.52;;
18899;SDS011;9582;52.018;6.306;2023-05-08T14:13:54;26.88;;;24.17;;
18899;SDS011;9582;52.018;6.306;2023-05-08T14:16:21;28.02;;;25.15;;
18899;SDS011;9582;52.018;6.306;2023-05-08T14:18:48;28.73;;;25.73;;
18899;SDS011;9582;52.018;6.306;2023-05-08T14:21:14;28.38;;;25.38;;
18899;SDS011;9582;52.018;6.306;2023-05-08T14:23:41;28.27;;;25.38;;
18899;SDS011;9582;52.018;6.306;2023-05-08T14:26:08;29.45;;;25.80;;
18899;SDS011;9582;52.018;6.306;2023-05-08T14:28:36;29.40;;;26.45;;
18899;SDS011;9582;52.018;6.306;2023-05-08T14:31:02;30.45;;;27.40;;
18899;SDS011;9582;52.018;6.306;2023-05-08T14:33:29;33.38;;;30.08;;
18899;SDS011;9582;52.018;6.306;2023-05-08T14:35:56;32.38;;;28.92;;
18899;SDS011;9582;52.018;6.306;2023-05-08T14:38:22;35.80;;;32.03;;
18899;SDS011;9582;52.018;6.306;2023-05-08T14:40:49;37.28;;;33.30;;
18899;SDS011;9582;52.018;6.306;2023-05-08T14:43:17;38.90;;;34.88;;